Time;durP1;ratioP1;P1;durP2;ratioP2;P2;SDS_P1;SDS_P2;PMS_P1;PMS_P2;Temp;Humidity;BMP_temperature;BMP_pressure;BME280_temperature;BME280_humidity;BME280_pressure;Samples;Min_cycle;Max_cycle;Signal;HPM_P1;HPM_P2
2023/09/04 00:01:02;;;;;;;7.20;5.40;;;;;;;22.22;75.42;101200.59;5088661;28;20432;-60
2023/09/04 00:03:28;;;;;;;6.83;5.70;;;;;;;22.22;75.25;101203.50;5091985;28;20551;-60
2023/09/04 00:05:54;;;;;;;6.40;5.07;;;;;;;22.22;75.78;101194.84;5107389;28;20189;-60
2023/09/04 00:08:19;;;;;;;9.13;5.83;;;;;;;22.20;75.67;101197.31;5097072;28;20196;-60
2023/09/04 00:10:44;;;;;;;6.37;5.17;;;;;;;22.22;75.56;101203.50;5079838;28;20182;-60
2023/09/04 00:13:11;;;;;;;6.27;5.17;;;;;;;22.22;75.45;101197.72;5102772;28;20185;-60
2023/09/04 00:15:37;;;;;;;6.67;5.50;;;;;;;22.22;75.46;101206.38;5088348;28;20591;-60
2023/09/04 00:18:03;;;;;;;6.47;5.37;;;;;;;22.22;75.63;101203.50;5088267;28;20468;-60
2023/09/04 00:20:29;;;;;;;7.80;6.03;;;;;;;22.22;75.23;101202.69;5088251;28;20178;-60
2023/09/04 00:22:55;;;;;;;5.73;4.73;;;;;;;22.21;75.57;101198.97;5095571;28;20437;-60
2023/09/04 00:25:21;;;;;;;5.70;4.47;;;;;;;22.21;75.48;101204.72;5108017;28;20256;-60
2023/09/04 00:27:47;;;;;;;5.80;4.63;;;;;;;22.21;75.54;101195.25;5104538;28;21013;-60
2023/09/04 00:30:13;;;;;;;6.70;5.00;;;;;;;22.20;75.03;101197.31;5087292;28;20182;-60
2023/09/04 00:32:38;;;;;;;6.57;4.93;;;;;;;22.20;75.08;101200.19;5098073;28;20186;-60
2023/09/04 00:35:04;;;;;;;6.47;5.50;;;;;;;22.21;75.68;101207.59;5107620;28;20420;-60
2023/09/04 00:37:30;;;;;;;6.00;4.87;;;;;;;22.21;75.07;101196.06;5099993;28;20205;-60
2023/09/04 00:39:55;;;;;;;6.43;5.20;;;;;;;22.20;75.17;101193.59;5088605;28;20419;-60
2023/09/04 00:42:20;;;;;;;6.77;5.40;;;;;;;22.20;75.17;101194.44;5105832;28;20177;-60
2023/09/04 00:44:50;;;;;;;7.00;5.60;;;;;;;22.20;75.14;101193.59;5106286;28;20180;-60
2023/09/04 00:47:18;;;;;;;6.70;5.40;;;;;;;22.20;75.41;101185.78;5090895;28;20177;-60
2023/09/04 00:49:44;;;;;;;6.40;4.50;;;;;;;22.19;75.20;101198.53;5089591;28;20443;-60
2023/09/04 00:52:10;;;;;;;7.20;5.30;;;;;;;22.20;75.14;101199.34;5104111;28;20443;-60
2023/09/04 00:54:36;;;;;;;5.80;4.93;;;;;;;22.20;75.61;101196.47;5074089;28;20643;-60
2023/09/04 00:57:03;;;;;;;5.47;4.87;;;;;;;22.21;75.33;101195.25;5084220;28;20448;-60
2023/09/04 00:59:29;;;;;;;6.43;5.43;;;;;;;22.19;75.06;101192.78;5090106;28;20947;-60
2023/09/04 01:01:54;;;;;;;6.07;4.73;;;;;;;22.19;75.55;101192.78;5076689;28;20443;-60
2023/09/04 01:04:20;;;;;;;6.00;4.70;;;;;;;22.21;75.22;101192.34;5076912;28;20600;-60
2023/09/04 01:06:45;;;;;;;5.13;4.60;;;;;;;22.19;75.26;101198.53;5087917;28;20578;-60
2023/09/04 01:09:11;;;;;;;6.13;5.00;;;;;;;22.18;74.95;101196.84;5090724;28;20594;-60
2023/09/04 01:11:42;;;;;;;7.00;5.20;;;;;;;22.18;75.37;101196.84;5088026;28;20208;-60
2023/09/04 01:14:17;;;;;;;5.63;4.60;;;;;;;22.18;75.17;101193.97;5069488;28;21010;-60
2023/09/04 01:16:43;;;;;;;6.20;5.40;;;;;;;22.18;74.82;101191.09;5069660;28;20475;-60
2023/09/04 01:19:10;;;;;;;5.87;4.77;;;;;;;22.17;75.16;101194.38;5089977;28;21277;-60
2023/09/04 01:21:39;;;;;;;6.80;4.73;;;;;;;22.17;75.15;101195.19;5087107;28;20178;-60
2023/09/04 01:24:04;;;;;;;6.13;5.10;;;;;;;22.17;75.32;101186.56;5089881;28;20444;-60
2023/09/04 01:26:40;;;;;;;6.50;4.40;;;;;;;22.15;75.04;101186.13;5087627;28;20415;-60
2023/09/04 01:29:11;;;;;;;6.00;4.73;;;;;;;22.18;75.16;101185.34;5070235;28;20243;-60
2023/09/04 01:31:53;;;;;;;7.07;5.07;;;;;;;22.16;74.92;101186.94;5095967;28;20434;-60
2023/09/04 01:34:22;;;;;;;6.60;4.77;;;;;;;22.16;74.80;101190.66;5100106;28;20556;-60
2023/09/04 01:36:47;;;;;;;6.20;4.93;;;;;;;22.16;75.04;101182.03;5107458;28;20500;-60
2023/09/04 01:39:13;;;;;;;5.70;4.93;;;;;;;22.16;75.04;101178.31;5089095;28;20427;-60
2023/09/04 01:41:41;;;;;;;5.50;4.20;;;;;;;22.16;74.99;101178.31;5095533;28;20182;-60
2023/09/04 01:44:07;;;;;;;6.57;5.40;;;;;;;22.15;74.75;101180.38;5091558;28;20839;-60
2023/09/04 01:46:33;;;;;;;5.30;4.30;;;;;;;22.16;74.50;101176.28;5093286;28;20413;-60
2023/09/04 01:48:59;;;;;;;6.73;4.60;;;;;;;22.15;74.75;101168.84;5093505;28;20288;-60
2023/09/04 01:51:24;;;;;;;6.77;4.93;;;;;;;22.13;74.54;101171.28;5090919;28;20413;-60
2023/09/04 01:53:49;;;;;;;5.13;4.17;;;;;;;22.15;74.83;101165.97;5090994;28;20178;-60
2023/09/04 01:56:15;;;;;;;5.67;4.43;;;;;;;22.15;74.87;101173.78;5099098;28;20232;-59
2023/09/04 01:58:40;;;;;;;5.93;4.93;;;;;;;22.14;74.62;101166.38;5090691;28;20170;-60
2023/09/04 02:01:06;;;;;;;4.90;3.97;;;;;;;22.13;74.31;101165.50;5090528;28;20178;-60
2023/09/04 02:03:32;;;;;;;5.07;4.20;;;;;;;22.13;74.55;101168.41;5105650;28;20189;-60
2023/09/04 02:05:57;;;;;;;6.20;4.10;;;;;;;22.13;74.62;101162.63;5111081;28;20178;-60
2023/09/04 02:08:22;;;;;;;5.50;4.60;;;;;;;22.13;74.18;101165.50;5102749;28;20705;-59
2023/09/04 02:10:48;;;;;;;6.00;4.70;;;;;;;22.14;74.71;101160.59;5090626;28;20167;-60
2023/09/04 02:13:13;;;;;;;5.07;4.10;;;;;;;22.14;74.17;101163.47;5090520;28;20158;-60
2023/09/04 02:15:39;;;;;;;5.50;4.20;;;;;;;22.12;74.36;101152.34;5092390;28;20237;-60
2023/09/04 02:18:04;;;;;;;6.00;4.70;;;;;;;22.13;74.62;101158.94;5090118;28;20284;-60
2023/09/04 02:20:30;;;;;;;6.10;4.00;;;;;;;22.13;74.53;101158.94;5098124;28;20193;-60
2023/09/04 02:22:56;;;;;;;7.07;4.90;;;;;;;22.12;74.47;101158.09;5080310;28;20193;-59
2023/09/04 02:25:23;;;;;;;5.70;4.63;;;;;;;22.11;74.09;101144.94;5071068;28;20174;-60
2023/09/04 02:27:48;;;;;;;5.50;4.70;;;;;;;22.12;74.24;101155.22;5080564;28;20281;-60
2023/09/04 02:30:14;;;;;;;5.53;4.60;;;;;;;22.12;74.30;101151.53;5109767;28;20415;-60
2023/09/04 02:32:39;;;;;;;5.90;4.00;;;;;;;22.12;74.15;101155.22;5108982;28;20185;-60
2023/09/04 02:35:05;;;;;;;6.20;4.90;;;;;;;22.12;74.47;101145.78;5106037;28;20182;-60
2023/09/04 02:37:30;;;;;;;5.50;4.90;;;;;;;22.12;74.36;101146.59;5110508;28;20194;-60
2023/09/04 02:39:56;;;;;;;6.03;4.20;;;;;;;22.11;74.41;101147.81;5105579;28;20524;-60
2023/09/04 02:42:22;;;;;;;5.30;3.80;;;;;;;22.11;74.08;101150.69;5089561;28;20703;-60
2023/09/04 02:44:47;;;;;;;5.47;4.37;;;;;;;22.12;74.34;101140.03;5103710;28;20516;-60
2023/09/04 02:47:13;;;;;;;6.30;4.17;;;;;;;22.11;74.07;101139.19;5094702;28;20174;-60
2023/09/04 02:49:38;;;;;;;6.00;4.70;;;;;;;22.09;74.42;101138.75;5089840;28;20248;-60
2023/09/04 02:52:04;;;;;;;5.20;4.30;;;;;;;22.10;73.89;101146.16;5100159;28;20197;-60
2023/09/04 02:54:29;;;;;;;4.87;4.00;;;;;;;22.10;73.82;101143.28;5107434;28;20189;-60
2023/09/04 02:56:55;;;;;;;5.90;4.43;;;;;;;22.09;74.16;101130.13;5090544;28;20237;-60
2023/09/04 02:59:20;;;;;;;4.20;3.60;;;;;;;22.09;74.11;101135.88;5088927;28;20159;-60
2023/09/04 03:01:49;;;;;;;5.60;4.30;;;;;;;22.10;73.95;101140.41;5099277;28;20960;-59
2023/09/04 03:04:14;;;;;;;5.53;4.23;;;;;;;22.09;74.18;101130.13;5107731;28;20174;-60
2023/09/04 03:06:40;;;;;;;4.93;3.93;;;;;;;22.08;nan;101128.44;5105262;28;20431;-60
2023/09/04 03:09:05;;;;;;;5.83;4.50;;;;;;;22.08;73.66;101130.53;5093196;28;20193;-60
2023/09/04 03:11:31;;;;;;;5.30;4.40;;;;;;;22.09;73.82;101135.03;5105751;28;20181;-60
2023/09/04 03:13:56;;;;;;;5.33;4.53;;;;;;;22.08;73.89;101131.31;5089223;28;20201;-60
2023/09/04 03:16:22;;;;;;;6.70;4.77;;;;;;;22.08;73.62;101131.31;5102323;28;20278;-60
2023/09/04 03:18:47;;;;;;;4.63;3.90;;;;;;;22.08;73.72;101121.88;5108793;28;20622;-60
2023/09/04 03:21:13;;;;;;;5.40;4.20;;;;;;;22.08;73.88;101124.75;5101604;28;20189;-60
2023/09/04 03:23:38;;;;;;;4.67;3.83;;;;;;;22.07;73.91;101114.47;5069904;28;20542;-60
2023/09/04 03:26:04;;;;;;;5.90;3.97;;;;;;;22.07;74.13;101123.91;5094533;28;20193;-60
2023/09/04 03:28:29;;;;;;;5.90;4.60;;;;;;;22.06;73.89;101122.28;5107089;28;20178;-60
2023/09/04 03:30:54;;;;;;;5.87;4.10;;;;;;;22.07;73.67;101131.75;5104539;28;20232;-60
2023/09/04 03:33:20;;;;;;;4.70;4.07;;;;;;;22.07;73.47;101123.13;5105609;28;20185;-60
2023/09/04 03:35:46;;;;;;;5.67;4.50;;;;;;;22.07;73.45;101126.78;5109271;28;20174;-60
2023/09/04 03:38:11;;;;;;;4.93;4.10;;;;;;;22.06;73.78;101121.41;5108983;28;20533;-60
2023/09/04 03:40:37;;;;;;;5.23;4.00;;;;;;;22.06;73.60;101125.16;5097976;28;20251;-60
2023/09/04 03:43:03;;;;;;;5.07;3.77;;;;;;;22.06;73.98;101116.50;5088820;28;20178;-60
2023/09/04 03:45:33;;;;;;;4.93;4.30;;;;;;;22.06;73.59;101124.31;5091628;28;20240;-60
2023/09/04 03:47:58;;;;;;;4.40;3.70;;;;;;;22.05;73.42;101132.13;5109035;28;20246;-60
2023/09/04 03:50:24;;;;;;;6.00;4.23;;;;;;;22.05;73.56;101129.25;5105110;28;20455;-60
2023/09/04 03:52:49;;;;;;;4.97;4.20;;;;;;;22.05;73.36;101135.00;5108995;28;20207;-60
2023/09/04 03:55:15;;;;;;;5.07;3.80;;;;;;;22.05;73.89;101134.16;5105016;28;20186;-60
2023/09/04 03:57:46;;;;;;;4.50;3.50;;;;;;;22.05;73.88;101134.16;5107195;28;20204;-60
2023/09/04 04:00:19;;;;;;;5.00;3.60;;;;;;;22.05;73.67;101131.28;5108760;28;20181;-60
2023/09/04 04:02:45;;;;;;;4.90;3.90;;;;;;;22.06;73.33;101135.81;5107935;28;20856;-60
2023/09/04 04:05:11;;;;;;;5.37;4.03;;;;;;;22.04;73.35;101127.59;5095799;28;20448;-59
2023/09/04 04:07:37;;;;;;;6.20;4.07;;;;;;;22.04;73.53;101129.63;5087848;28;20470;-60
2023/09/04 04:10:04;;;;;;;5.20;3.87;;;;;;;22.04;73.70;101127.59;5090725;28;20836;-60
2023/09/04 04:12:31;;;;;;;4.90;4.07;;;;;;;22.04;73.78;101123.88;5087912;28;20926;-60
2023/09/04 04:14:57;;;;;;;4.90;4.10;;;;;;;22.03;73.49;101127.97;5088501;28;20427;-60
2023/09/04 04:17:26;;;;;;;4.63;3.80;;;;;;;22.03;73.61;101125.91;5090347;28;20858;-60
2023/09/04 04:19:53;;;;;;;5.50;3.93;;;;;;;22.03;73.22;101122.22;5088250;28;20404;-59
2023/09/04 04:22:22;;;;;;;4.90;3.63;;;;;;;22.03;73.53;101122.22;5087989;28;20405;-60
2023/09/04 04:24:47;;;;;;;5.00;3.67;;;;;;;22.02;73.09;101127.13;5089160;28;20440;-60
2023/09/04 04:27:15;;;;;;;4.50;3.33;;;;;;;22.03;73.33;101131.66;5088460;28;20435;-60
2023/09/04 04:29:44;;;;;;;5.43;3.43;;;;;;;22.02;73.33;101124.25;5090741;28;20734;-60
2023/09/04 04:32:09;;;;;;;6.10;4.30;;;;;;;22.01;73.56;101113.97;5108159;28;20488;-60
2023/09/04 04:34:35;;;;;;;4.97;3.90;;;;;;;22.02;73.28;101118.50;5102596;28;20440;-60
2023/09/04 04:37:00;;;;;;;4.47;3.80;;;;;;;22.01;73.29;101105.34;5070184;28;20194;-60
2023/09/04 04:39:26;;;;;;;4.90;3.97;;;;;;;22.01;73.54;101108.22;5089053;28;20749;-60
2023/09/04 04:41:51;;;;;;;5.47;3.53;;;;;;;22.02;73.06;101103.31;5071149;28;20638;-60
2023/09/04 04:44:17;;;;;;;5.97;3.87;;;;;;;22.01;73.35;101090.97;5087959;28;20273;-60
2023/09/04 04:46:42;;;;;;;7.70;3.80;;;;;;;22.01;72.86;101101.63;5090744;28;20178;-60
2023/09/04 04:49:08;;;;;;;4.87;3.80;;;;;;;22.01;72.96;101095.88;5088223;28;20202;-60
2023/09/04 04:51:33;;;;;;;5.20;3.90;;;;;;;22.01;72.87;101093.84;5088299;28;20178;-60
2023/09/04 04:53:58;;;;;;;4.90;3.80;;;;;;;21.99;72.90;101090.53;5104532;28;20716;-60
2023/09/04 04:56:24;;;;;;;5.30;4.07;;;;;;;22.00;73.07;101085.59;5102785;28;20624;-60
2023/09/04 04:58:50;;;;;;;4.47;3.17;;;;;;;22.00;73.05;101085.59;5095956;28;20687;-60
2023/09/04 05:01:15;;;;;;;5.37;4.00;;;;;;;22.00;73.27;101088.47;5091604;28;20217;-60
2023/09/04 05:03:41;;;;;;;4.97;3.47;;;;;;;22.00;73.24;101088.47;5103322;28;20181;-60
2023/09/04 05:06:07;;;;;;;5.07;3.97;;;;;;;21.99;72.88;101084.78;5091408;28;20940;-60
2023/09/04 05:08:33;;;;;;;4.23;3.13;;;;;;;21.99;73.31;101081.91;5085934;28;20193;-60
2023/09/04 05:11:03;;;;;;;4.93;4.00;;;;;;;21.98;72.72;101085.97;5095855;28;20435;-60
2023/09/04 05:13:29;;;;;;;4.20;3.13;;;;;;;21.99;72.96;101079.03;5106131;28;20182;-60
2023/09/04 05:15:54;;;;;;;5.20;3.80;;;;;;;21.98;72.66;101074.47;5079371;28;20531;-60
2023/09/04 05:18:20;;;;;;;4.93;3.87;;;;;;;21.98;73.15;101074.47;5068085;28;20805;-60
2023/09/04 05:20:46;;;;;;;4.63;3.50;;;;;;;21.97;73.20;101069.94;5055817;28;20210;-60
2023/09/04 05:23:11;;;;;;;4.53;3.50;;;;;;;21.98;72.84;101071.59;5067131;28;20624;-60
2023/09/04 05:25:36;;;;;;;4.67;3.87;;;;;;;21.98;73.35;101067.91;5071220;28;20183;-60
2023/09/04 05:28:02;;;;;;;6.23;3.60;;;;;;;21.97;72.74;101067.06;5071120;28;20175;-60
2023/09/04 05:30:28;;;;;;;5.13;3.60;;;;;;;21.97;73.04;101072.81;5069741;28;20191;-59
2023/09/04 05:32:53;;;;;;;4.60;3.47;;;;;;;21.98;73.17;101079.41;5055676;28;20632;-60
2023/09/04 05:35:19;;;;;;;5.23;3.60;;;;;;;21.97;72.58;101074.88;5058666;28;20900;-59
2023/09/04 05:37:44;;;;;;;4.57;3.63;;;;;;;21.97;72.69;101072.00;5062104;28;20195;-60
2023/09/04 05:40:10;;;;;;;4.93;3.80;;;;;;;21.97;72.81;101075.69;5051543;28;20832;-59
2023/09/04 05:42:36;;;;;;;4.90;3.97;;;;;;;21.96;72.64;101071.16;5050467;28;20210;-59
2023/09/04 05:45:02;;;;;;;5.70;4.00;;;;;;;21.96;73.04;101068.28;5050396;28;21070;-59
2023/09/04 05:47:28;;;;;;;3.60;3.00;;;;;;;21.96;72.63;101062.53;5053031;28;20180;-60
2023/09/04 05:49:53;;;;;;;4.60;3.40;;;;;;;21.96;72.72;101065.41;5050648;28;20496;-59
2023/09/04 05:52:19;;;;;;;4.70;3.90;;;;;;;21.96;72.67;101062.53;5052677;28;20187;-59
2023/09/04 05:54:45;;;;;;;4.80;3.60;;;;;;;21.96;73.01;101065.41;5061152;28;20179;-60
2023/09/04 05:57:10;;;;;;;5.57;4.13;;;;;;;21.97;72.92;101063.38;5069604;28;20199;-60
2023/09/04 05:59:35;;;;;;;4.10;3.67;;;;;;;21.95;72.57;101066.63;5066466;28;20193;-59
2023/09/04 06:02:01;;;;;;;3.93;3.37;;;;;;;21.95;72.90;101078.13;5070000;28;20946;-60
2023/09/04 06:04:26;;;;;;;6.93;3.00;;;;;;;21.95;72.67;101065.78;5065094;28;20701;-60
2023/09/04 06:06:52;;;;;;;4.10;3.30;;;;;;;21.96;72.62;101067.44;5068203;28;20151;-60
2023/09/04 06:09:18;;;;;;;3.93;3.23;;;;;;;21.96;72.60;101073.19;5066576;28;20217;-60
2023/09/04 06:11:44;;;;;;;4.50;3.23;;;;;;;21.95;72.63;101078.13;5066138;28;21111;-60
2023/09/04 06:14:09;;;;;;;5.73;3.87;;;;;;;21.94;72.48;101082.22;5067883;28;20182;-60
2023/09/04 06:16:35;;;;;;;4.53;3.43;;;;;;;21.95;72.45;101075.25;5080586;28;20306;-59
2023/09/04 06:19:01;;;;;;;4.37;3.40;;;;;;;21.96;72.73;101084.69;5088240;28;20212;-60
2023/09/04 06:21:26;;;;;;;6.63;3.80;;;;;;;21.96;72.46;101081.81;5090104;28;20431;-60
2023/09/04 06:23:52;;;;;;;4.43;3.17;;;;;;;21.96;72.17;101087.56;5090750;28;20707;-60
2023/09/04 06:26:17;;;;;;;4.20;3.30;;;;;;;21.96;72.10;101087.56;5089004;28;20170;-60
2023/09/04 06:28:43;;;;;;;4.63;3.20;;;;;;;21.95;72.14;101095.38;5096609;28;20173;-60
2023/09/04 06:31:08;;;;;;;6.13;3.90;;;;;;;21.95;72.63;101091.66;5099495;28;20181;-60
2023/09/04 06:33:37;;;;;;;4.20;3.30;;;;;;;21.95;72.44;101086.75;5095200;28;20196;-59
2023/09/04 06:36:03;;;;;;;6.10;4.30;;;;;;;21.94;72.46;101096.59;5077146;28;20182;-59
2023/09/04 06:38:29;;;;;;;4.30;3.43;;;;;;;21.95;72.14;101101.13;5100847;28;20452;-60
2023/09/04 06:40:57;;;;;;;4.50;3.40;;;;;;;21.95;72.31;101101.13;5074559;28;20447;-60
2023/09/04 06:43:27;;;;;;;5.70;3.37;;;;;;;21.94;72.69;101102.34;5105418;28;20190;-60
2023/09/04 06:45:52;;;;;;;5.00;3.47;;;;;;;21.94;72.13;101105.22;5092297;28;20424;-60
2023/09/04 06:48:18;;;;;;;4.37;3.30;;;;;;;21.94;72.63;101093.72;5098926;28;20821;-60
2023/09/04 06:50:43;;;;;;;4.63;3.90;;;;;;;21.94;72.23;101105.22;5098403;28;20208;-60
2023/09/04 06:53:09;;;;;;;5.93;3.67;;;;;;;21.94;72.62;101108.09;5104932;28;20247;-60
2023/09/04 06:55:35;;;;;;;4.13;3.10;;;;;;;21.94;72.09;101110.97;5102254;28;20251;-59
2023/09/04 06:58:00;;;;;;;4.63;3.57;;;;;;;21.94;72.56;101099.47;5096700;28;20190;-59
2023/09/04 07:00:26;;;;;;;7.33;4.23;;;;;;;21.95;72.48;101104.00;5089378;28;20397;-59
2023/09/04 07:02:51;;;;;;;5.53;3.20;;;;;;;21.94;72.36;101102.34;5098902;28;20204;-59
2023/09/04 07:05:17;;;;;;;5.97;3.40;;;;;;;21.94;72.51;101110.13;5099741;28;20182;-59
2023/09/04 07:07:42;;;;;;;5.50;3.77;;;;;;;21.95;72.34;101112.63;5090893;28;20174;-60
2023/09/04 07:10:08;;;;;;;4.63;3.50;;;;;;;21.94;72.48;101116.72;5092597;28;20243;-60
2023/09/04 07:12:36;;;;;;;5.10;3.73;;;;;;;21.95;72.33;101112.63;5086973;28;20171;-60
2023/09/04 07:15:02;;;;;;;4.23;3.43;;;;;;;21.95;72.14;101123.28;5090334;28;20182;-60
2023/09/04 07:17:28;;;;;;;6.53;4.70;;;;;;;21.96;72.66;101116.31;5090383;28;20602;-59
2023/09/04 07:19:53;;;;;;;4.77;3.53;;;;;;;21.96;72.56;101114.28;5089576;28;20961;-60
2023/09/04 07:22:19;;;;;;;3.93;3.33;;;;;;;21.95;72.23;101112.63;5091404;28;20237;-59
2023/09/04 07:24:44;;;;;;;4.40;3.10;;;;;;;21.96;72.15;101107.69;5093581;28;20174;-60
2023/09/04 07:27:10;;;;;;;5.87;3.53;;;;;;;21.95;72.72;101103.16;5083156;28;20170;-60
2023/09/04 07:29:36;;;;;;;5.77;3.73;;;;;;;21.96;72.45;101116.31;5107334;28;20173;-60
2023/09/04 07:32:02;;;;;;;4.23;3.40;;;;;;;21.96;72.55;101114.28;5095389;28;20186;-60
2023/09/04 07:34:28;;;;;;;3.80;2.90;;;;;;;21.96;72.51;101110.56;5093915;28;20266;-60
2023/09/04 07:36:53;;;;;;;4.47;3.40;;;;;;;21.95;72.54;101106.03;5088975;28;20943;-59
2023/09/04 07:39:19;;;;;;;4.90;3.70;;;;;;;21.95;72.37;101109.75;5091251;28;20490;-60
2023/09/04 07:41:44;;;;;;;4.77;3.33;;;;;;;21.95;72.18;101112.63;5090293;28;20192;-60
2023/09/04 07:44:10;;;;;;;3.83;3.17;;;;;;;21.95;72.26;101106.88;5089930;28;20552;-60
2023/09/04 07:46:35;;;;;;;5.20;3.20;;;;;;;21.96;72.52;101111.41;5089060;28;20543;-60
2023/09/04 07:49:01;;;;;;;3.93;3.10;;;;;;;21.95;72.77;101106.88;5089163;28;20181;-60
2023/09/04 07:51:26;;;;;;;4.97;3.60;;;;;;;21.96;72.59;101108.53;5090932;28;20178;-59
2023/09/04 07:53:51;;;;;;;4.47;3.43;;;;;;;21.96;72.84;101107.69;5088245;28;20167;-60
2023/09/04 07:56:17;;;;;;;4.60;3.50;;;;;;;21.95;72.60;101101.13;5104866;28;20178;-59
2023/09/04 07:58:44;;;;;;;3.83;3.27;;;;;;;21.96;72.50;101104.81;5088712;28;20202;-60
2023/09/04 08:01:15;;;;;;;5.33;3.70;;;;;;;21.96;72.69;101102.78;5093294;28;20198;-60
2023/09/04 08:03:41;;;;;;;5.33;3.43;;;;;;;21.96;72.76;101096.19;5106749;28;20434;-60
2023/09/04 08:06:07;;;;;;;6.13;3.37;;;;;;;21.96;72.31;101096.19;5088981;28;20404;-59
2023/09/04 08:08:32;;;;;;;5.50;3.70;;;;;;;21.96;72.23;101102.78;5107545;28;20411;-60
2023/09/04 08:10:58;;;;;;;5.13;3.50;;;;;;;21.96;72.38;101091.28;5061609;28;20440;-60
2023/09/04 08:13:23;;;;;;;5.13;3.53;;;;;;;21.96;72.64;101102.78;5088415;28;20178;-59
2023/09/04 08:15:48;;;;;;;7.90;3.53;;;;;;;21.97;72.19;101087.19;5090502;28;20230;-59
2023/09/04 08:18:14;;;;;;;5.07;3.20;;;;;;;21.98;72.66;101090.91;5108409;28;20193;-60
2023/09/04 08:20:39;;;;;;;3.90;2.93;;;;;;;21.97;72.32;101098.69;5089904;28;20178;-59
2023/09/04 08:23:06;;;;;;;4.83;3.30;;;;;;;21.97;72.88;101090.06;5072260;28;20194;-60
2023/09/04 08:25:32;;;;;;;4.40;3.47;;;;;;;21.98;72.59;101096.66;5106281;28;20276;-60
2023/09/04 08:27:58;;;;;;;6.33;3.93;;;;;;;21.96;72.72;101105.66;5108118;28;20594;-60
2023/09/04 08:30:23;;;;;;;5.67;3.57;;;;;;;21.97;72.48;101092.94;5106561;28;20188;-59
2023/09/04 08:32:49;;;;;;;5.57;3.10;;;;;;;21.98;72.57;101093.78;5107034;28;20181;-60
2023/09/04 08:35:15;;;;;;;4.50;3.23;;;;;;;21.98;72.60;101088.84;5098960;28;20197;-60
2023/09/04 08:37:41;;;;;;;4.50;3.40;;;;;;;21.99;72.60;101086.81;5107411;28;20682;-59
2023/09/04 08:40:07;;;;;;;4.90;3.63;;;;;;;21.99;72.71;101081.06;5107806;28;20419;-60
2023/09/04 08:42:33;;;;;;;5.47;3.80;;;;;;;21.99;72.97;101083.94;5107854;28;20182;-60
2023/09/04 08:44:58;;;;;;;5.10;3.60;;;;;;;21.99;72.96;101079.03;5097631;28;20451;-59
2023/09/04 08:47:24;;;;;;;5.50;3.43;;;;;;;21.99;73.06;101078.19;5092421;28;20273;-59
2023/09/04 08:49:51;;;;;;;5.60;3.30;;;;;;;22.00;73.17;101086.44;5072093;28;20250;-60
2023/09/04 08:52:16;;;;;;;5.00;3.73;;;;;;;22.00;73.16;101074.94;5093231;28;20182;-60
2023/09/04 08:54:42;;;;;;;5.37;3.70;;;;;;;22.00;73.12;101074.09;5098516;28;20544;-60
2023/09/04 08:57:08;;;;;;;4.73;3.70;;;;;;;22.00;73.30;101068.34;5106437;28;20224;-60
2023/09/04 08:59:33;;;;;;;6.20;3.80;;;;;;;22.01;72.73;101072.88;5090298;28;20186;-59
2023/09/04 09:02:03;;;;;;;4.97;3.10;;;;;;;22.01;73.04;101067.97;5094420;28;20441;-59
2023/09/04 09:04:28;;;;;;;5.03;3.60;;;;;;;22.02;73.12;101065.91;5094238;28;20582;-60
2023/09/04 09:06:54;;;;;;;3.83;2.87;;;;;;;22.02;72.57;101072.47;5093053;28;20476;-60
2023/09/04 09:09:20;;;;;;;4.63;3.23;;;;;;;22.04;73.31;101074.97;5112547;28;20158;-60
2023/09/04 09:11:45;;;;;;;4.20;3.30;;;;;;;22.03;73.11;101065.50;5091481;28;20262;-60
2023/09/04 09:14:15;;;;;;;5.33;3.93;;;;;;;22.03;72.96;101068.38;5075204;28;20432;-60
2023/09/04 09:16:40;;;;;;;5.37;3.90;;;;;;;22.04;72.80;101069.22;5093877;28;20229;-60
2023/09/04 09:19:08;;;;;;;5.10;3.43;;;;;;;22.04;73.04;101064.31;5101007;28;20782;-59
2023/09/04 09:21:34;;;;;;;4.57;3.10;;;;;;;22.04;73.73;101060.59;5111348;28;20164;-59
2023/09/04 09:24:19;;;;;;;4.30;3.23;;;;;;;22.04;72.90;101058.56;5106359;28;20434;-59
2023/09/04 09:26:46;;;;;;;8.00;3.40;;;;;;;22.04;73.23;101055.69;5107215;28;20179;-60
2023/09/04 09:29:12;;;;;;;5.67;3.40;;;;;;;22.05;73.46;101053.63;5089846;28;20543;-59
2023/09/04 09:31:38;;;;;;;5.30;3.20;;;;;;;22.05;73.54;101054.47;5075440;28;20424;-60
2023/09/04 09:34:04;;;;;;;4.33;3.37;;;;;;;22.06;72.61;101055.28;5104080;28;20518;-59
2023/09/04 09:36:30;;;;;;;4.50;3.07;;;;;;;22.05;73.53;101042.97;5096355;28;20434;-59
2023/09/04 09:38:55;;;;;;;4.97;3.30;;;;;;;22.05;73.95;101042.13;5090680;28;20708;-59
2023/09/04 09:41:21;;;;;;;7.00;3.70;;;;;;;22.06;73.79;101038.03;5084040;28;20558;-60
2023/09/04 09:43:46;;;;;;;4.83;3.67;;;;;;;22.06;73.32;101041.75;5094729;28;20761;-59
2023/09/04 09:46:16;;;;;;;5.20;3.57;;;;;;;22.08;73.46;101041.38;5089512;28;20256;-60
2023/09/04 09:48:42;;;;;;;4.70;3.80;;;;;;;22.06;73.82;101036.00;5089086;28;20174;-60
2023/09/04 09:51:07;;;;;;;4.30;3.13;;;;;;;22.07;73.60;101036.84;5071774;28;20444;-59
2023/09/04 09:53:43;;;;;;;4.67;3.30;;;;;;;22.08;73.63;101033.53;5081850;28;20193;-59
2023/09/04 09:56:09;;;;;;;5.00;3.47;;;;;;;22.08;73.47;101024.91;5105525;28;20231;-60
2023/09/04 09:58:35;;;;;;;4.83;3.60;;;;;;;22.07;74.03;101023.25;5092434;28;20456;-59
2023/09/04 10:01:00;;;;;;;4.70;3.20;;;;;;;22.07;73.84;101000.25;5107747;28;20439;-60
2023/09/04 10:03:26;;;;;;;5.00;3.40;;;;;;;22.09;73.60;101002.75;5104093;28;20956;-60
2023/09/04 10:05:52;;;;;;;8.83;3.90;;;;;;;22.09;73.89;101002.75;5090445;28;20602;-60
2023/09/04 10:08:17;;;;;;;5.13;3.43;;;;;;;22.08;73.46;100999.03;5072571;28;20205;-59
2023/09/04 10:10:43;;;;;;;5.43;2.87;;;;;;;22.08;73.79;100992.47;5095895;28;20186;-60
2023/09/04 10:13:19;;;;;;;4.20;3.07;;;;;;;22.09;73.84;100994.97;5071776;28;20167;-59
2023/09/04 10:15:46;;;;;;;3.73;2.87;;;;;;;22.09;73.61;100992.09;5093824;28;20233;-60
2023/09/04 10:18:14;;;;;;;6.70;3.97;;;;;;;22.09;74.00;100986.34;5071819;28;20471;-60
2023/09/04 10:20:40;;;;;;;4.33;3.13;;;;;;;22.09;73.96;100983.47;5074162;28;20789;-60
2023/09/04 10:23:08;;;;;;;5.43;3.63;;;;;;;22.09;73.92;100974.84;5071661;28;20420;-60
2023/09/04 10:25:53;;;;;;;8.30;4.67;;;;;;;22.09;73.75;100977.72;5089737;28;20426;-60
2023/09/04 10:28:24;;;;;;;4.40;3.03;;;;;;;22.10;73.96;100973.63;5092545;28;20509;-59
2023/09/04 10:30:52;;;;;;;5.80;3.70;;;;;;;22.10;73.81;100967.84;5088415;28;20462;-59
2023/09/04 10:33:19;;;;;;;6.53;3.10;;;;;;;22.09;73.30;100963.34;5106409;28;20510;-59
2023/09/04 10:35:44;;;;;;;5.93;3.40;;;;;;;22.12;73.46;100970.34;5089012;28;20435;-60
2023/09/04 10:38:09;;;;;;;5.30;3.60;;;;;;;22.11;73.42;100960.88;5072453;28;20468;-60
2023/09/04 10:40:35;;;;;;;4.07;3.10;;;;;;;22.11;73.36;100963.75;5108768;28;20254;-59
2023/09/04 10:43:03;;;;;;;5.93;3.13;;;;;;;22.12;73.66;100956.78;5096537;28;20255;-60
2023/09/04 10:45:29;;;;;;;6.10;3.20;;;;;;;22.14;73.34;100956.41;5075524;28;20180;-59
2023/09/04 10:47:54;;;;;;;4.77;3.40;;;;;;;22.14;73.16;100957.25;5099803;28;20424;-60
2023/09/04 10:50:30;;;;;;;4.83;3.63;;;;;;;22.14;72.87;100954.38;5095762;28;21025;-61
2023/09/04 10:53:00;;;;;;;5.20;3.03;;;;;;;22.15;72.97;100943.66;5107071;28;20180;-60
2023/09/04 10:55:26;;;;;;;4.90;3.37;;;;;;;22.14;72.79;100945.72;5098570;28;20512;-60
2023/09/04 10:57:56;;;;;;;3.70;2.90;;;;;;;22.16;73.08;100951.06;5081736;28;20491;-59
2023/09/04 11:00:37;;;;;;;4.53;3.57;;;;;;;22.14;72.88;100948.63;5089963;28;20186;-60
2023/09/04 11:03:18;;;;;;;5.30;3.30;;;;;;;22.16;72.17;100946.16;5070974;28;20416;-60
2023/09/04 11:06:02;;;;;;;5.60;3.03;;;;;;;22.16;72.15;100939.56;5096420;28;20424;-60
2023/09/04 11:08:28;;;;;;;5.30;3.07;;;;;;;22.16;72.37;100939.56;5100327;28;20416;-60
2023/09/04 11:11:01;;;;;;;13.33;3.20;;;;;;;22.15;72.36;100944.50;5104374;28;20503;-60
2023/09/04 11:13:27;;;;;;;4.90;2.90;;;;;;;22.19;72.01;100938.81;5086298;28;20423;-60
2023/09/04 11:15:58;;;;;;;6.00;3.10;;;;;;;22.17;71.95;100932.63;5092196;28;20472;-60
2023/09/04 11:18:31;;;;;;;8.30;3.30;;;;;;;22.16;72.47;100936.69;5105033;28;20205;-60
2023/09/04 11:20:56;;;;;;;7.73;3.30;;;;;;;22.18;72.00;100935.09;5103335;28;20859;-60